Littlesburg, West Virginia
Current Conditions -  °F | °C
As of 10:11 PM on Wednesday 22 Oct 2014 (Local Time) from KBLF Reporting Station
Haze Haze  
Wind Chill: 39°   Ceiling: 1300
Heat Index: 43°   Visibility: 6mi
Dew Point: 40°   Wind: 6mph
Humidity: 89%   Direction: 310°NW
Pressure: 30.17"   Gusts: NA
Location:  37.2994°N, 81.226°W
Report Text: KBLF 230211Z AUTO 31005KT 6SM BR FEW007 BKN013 OVC020 06/04 A3017 RMK AO2 T00610044
Loading
Personal Weather Stations






























Interactive Weather Map
Tropical Storm Tracking
New forecast layout! Learn more

10-Day Weather Forecast

Advertisements
Track Severe Weather on mobile